Time;durP1;ratioP1;P1;durP2;ratioP2;P2;SDS_P1;SDS_P2;PMS_P1;PMS_P2;Temp;Humidity;BMP_temperature;BMP_pressure;BME280_temperature;BME280_humidity;BME280_pressure;Samples;Min_cycle;Max_cycle;Signal;HPM_P1;HPM_P2
2024/02/15 00:02:13;;;;;;;2.00;1.80;;;;;;;16.56;54.23;99211.13;6975282;28;20689;-81
2024/02/15 00:05:36;;;;;;;3.97;2.27;;;;;;;16.78;53.26;99216.84;6974722;28;20235;-81
2024/02/15 00:08:58;;;;;;;4.37;2.30;;;;;;;16.38;54.23;99213.91;6970786;28;20228;-81
2024/02/15 00:12:19;;;;;;;3.67;2.97;;;;;;;16.67;53.78;99212.19;6965054;28;20217;-82
2024/02/15 00:15:41;;;;;;;4.53;2.53;;;;;;;16.75;53.60;99212.69;6970026;28;20319;-81
2024/02/15 00:19:04;;;;;;;2.47;2.27;;;;;;;16.51;53.87;99211.00;6970002;28;20231;-81
2024/02/15 00:22:25;;;;;;;2.37;1.90;;;;;;;16.64;53.98;99208.06;6970934;28;20375;-81
2024/02/15 00:25:47;;;;;;;2.37;2.00;;;;;;;16.89;52.73;99192.38;6973355;28;20219;-81
2024/02/15 00:29:08;;;;;;;2.23;1.90;;;;;;;16.61;53.69;99215.88;6971717;28;20581;-82
2024/02/15 00:32:29;;;;;;;4.53;2.23;;;;;;;16.34;54.47;99207.25;6973753;28;20211;-81
2024/02/15 00:35:52;;;;;;;6.17;2.37;;;;;;;16.58;53.87;99221.78;6972090;28;20560;-82
2024/02/15 00:39:17;;;;;;;3.97;2.10;;;;;;;15.62;55.47;99169.34;6950017;28;20256;-81
2024/02/15 00:42:39;;;;;;;1.97;1.87;;;;;;;16.45;53.86;99213.84;6957787;28;20203;-81
2024/02/15 00:46:00;;;;;;;3.20;2.30;;;;;;;16.46;54.01;99210.84;6973658;28;20208;-82
2024/02/15 00:49:22;;;;;;;4.63;2.50;;;;;;;16.39;54.61;99199.25;6973531;28;20251;-81
2024/02/15 00:52:45;;;;;;;3.17;1.73;;;;;;;16.69;53.49;99204.66;6972792;28;20205;-82
2024/02/15 00:56:07;;;;;;;1.70;1.60;;;;;;;16.75;52.91;99193.63;6972462;28;20349;-81
2024/02/15 00:59:28;;;;;;;2.70;1.83;;;;;;;17.16;51.93;99200.91;6971684;28;20350;-82
2024/02/15 01:02:50;;;;;;;4.63;2.13;;;;;;;17.24;51.67;99200.53;6973456;28;20257;-81
2024/02/15 01:06:11;;;;;;;2.47;2.00;;;;;;;16.82;52.53;99199.78;6973268;28;20208;-81
2024/02/15 01:09:34;;;;;;;3.37;2.00;;;;;;;17.09;51.77;99198.28;6972613;28;20298;-81
2024/02/15 01:12:56;;;;;;;3.00;2.07;;;;;;;17.19;51.75;99192.22;6973381;28;20361;-81
2024/02/15 01:16:17;;;;;;;2.93;1.90;;;;;;;17.25;51.52;99194.00;6974243;28;20343;-82
2024/02/15 01:19:39;;;;;;;3.73;1.90;;;;;;;17.42;50.73;99201.25;6973860;28;20243;-82
2024/02/15 01:23:00;;;;;;;3.23;1.80;;;;;;;17.25;51.11;99188.56;6974009;28;20364;-81
2024/02/15 01:26:23;;;;;;;3.30;1.90;;;;;;;17.36;50.73;99185.84;6972684;28;20328;-81
2024/02/15 01:29:45;;;;;;;2.00;1.90;;;;;;;17.03;51.54;99179.31;6972293;28;20242;-81
2024/02/15 01:33:06;;;;;;;4.23;2.00;;;;;;;17.23;50.77;99193.41;6966101;28;20205;-81
2024/02/15 01:36:28;;;;;;;5.63;2.20;;;;;;;17.32;50.81;99191.97;6947075;28;20290;-80
2024/02/15 01:39:51;;;;;;;2.27;2.00;;;;;;;17.45;50.03;99178.16;6946926;28;20318;-81
2024/02/15 01:43:13;;;;;;;3.50;1.93;;;;;;;16.86;50.68;99145.72;6951580;28;20236;-81
2024/02/15 01:46:35;;;;;;;4.30;1.90;;;;;;;16.79;51.91;99185.81;6954267;28;20245;-81
2024/02/15 01:49:56;;;;;;;2.40;1.83;;;;;;;16.46;53.00;99175.47;6955328;28;20669;-81
2024/02/15 01:53:18;;;;;;;3.50;2.10;;;;;;;16.05;53.88;99185.50;6951635;28;20290;-81
2024/02/15 01:56:40;;;;;;;2.17;2.03;;;;;;;15.82;54.58;99169.91;6952015;28;20313;-81
2024/02/15 02:00:03;;;;;;;2.50;1.93;;;;;;;16.66;52.69;99194.22;6951308;28;20258;-81
2024/02/15 02:03:25;;;;;;;2.20;2.00;;;;;;;15.98;54.50;99176.63;6953887;28;20212;-82
2024/02/15 02:06:46;;;;;;;5.17;2.20;;;;;;;16.38;53.11;99178.53;6955301;28;20938;-81
2024/02/15 02:10:10;;;;;;;3.77;2.10;;;;;;;16.41;52.77;99180.81;6953197;28;20299;-81
2024/02/15 02:13:32;;;;;;;3.53;1.93;;;;;;;16.40;52.96;99178.31;6947741;28;20231;-80
2024/02/15 02:16:55;;;;;;;3.57;2.20;;;;;;;16.05;53.82;99188.22;6948228;28;20713;-81
2024/02/15 02:20:17;;;;;;;2.37;2.00;;;;;;;16.10;53.57;99183.75;6946809;28;20303;-81
2024/02/15 02:23:38;;;;;;;4.40;2.63;;;;;;;16.07;53.55;99186.94;6946165;28;20208;-82
2024/02/15 02:27:01;;;;;;;4.70;2.30;;;;;;;15.63;54.62;99178.34;6950253;28;20308;-81
2024/02/15 02:30:23;;;;;;;4.37;2.20;;;;;;;16.05;53.25;99189.03;6973867;28;20240;-82
2024/02/15 02:33:48;;;;;;;4.83;2.30;;;;;;;15.28;55.23;99190.84;6975419;28;20234;-81
2024/02/15 02:37:10;;;;;;;5.53;2.50;;;;;;;15.61;55.12;99181.28;6975370;28;20323;-80
2024/02/15 02:40:31;;;;;;;5.63;2.47;;;;;;;15.68;53.91;99192.88;6975603;28;20323;-82
2024/02/15 02:43:55;;;;;;;3.80;2.10;;;;;;;15.59;53.73;99185.28;6978312;28;20211;-83
2024/02/15 02:47:16;;;;;;;2.20;2.00;;;;;;;15.46;53.97;99193.59;6979502;28;20315;-80
2024/02/15 02:50:38;;;;;;;2.67;2.43;;;;;;;15.38;53.68;99188.44;6980990;28;20710;-81
2024/02/15 02:54:01;;;;;;;3.53;2.17;;;;;;;14.77;55.36;99183.00;6972598;28;20239;-81
2024/02/15 02:57:22;;;;;;;3.53;2.33;;;;;;;14.90;55.27;99193.72;6973133;28;20651;-80
2024/02/15 03:00:46;;;;;;;2.30;2.10;;;;;;;14.68;55.80;99203.31;6972777;28;20293;-82
2024/02/15 03:04:07;;;;;;;3.27;2.13;;;;;;;14.73;55.81;99194.50;6972388;28;20214;-82
2024/02/15 03:07:29;;;;;;;5.67;2.50;;;;;;;14.45;55.79;99192.22;6948757;28;20871;-81
2024/02/15 03:10:51;;;;;;;3.73;2.40;;;;;;;14.25;56.58;99190.69;6945845;28;20304;-81
2024/02/15 03:14:12;;;;;;;3.60;2.30;;;;;;;13.39;59.04;99185.91;6945563;28;20230;-81
2024/02/15 03:17:35;;;;;;;3.37;2.33;;;;;;;14.13;57.81;99187.00;6944753;28;20234;-81
2024/02/15 03:20:56;;;;;;;4.73;2.37;;;;;;;14.15;57.21;99187.63;6945586;28;20693;-81
2024/02/15 03:24:18;;;;;;;5.00;2.10;;;;;;;14.08;57.01;99197.66;6945633;28;20293;-81
2024/02/15 03:27:40;;;;;;;2.60;2.03;;;;;;;13.72;57.67;99186.59;6955486;28;20301;-81
2024/02/15 03:31:01;;;;;;;5.27;2.83;;;;;;;12.83;60.55;99193.72;6977269;28;20317;-81
2024/02/15 03:34:25;;;;;;;3.67;2.37;;;;;;;13.09;59.84;99198.31;6977655;28;20704;-81
2024/02/15 03:37:47;;;;;;;4.77;2.50;;;;;;;13.07;59.06;99186.84;6976749;28;20233;-81
2024/02/15 03:41:08;;;;;;;2.93;2.60;;;;;;;13.44;58.82;99188.78;6972980;28;20293;-81
2024/02/15 03:44:31;;;;;;;3.30;2.47;;;;;;;13.21;58.48;99166.81;6951084;28;20227;-81
2024/02/15 03:47:52;;;;;;;2.40;2.20;;;;;;;13.00;59.05;99199.56;6950744;28;20226;-81
2024/02/15 03:51:20;;;;;;;2.87;2.37;;;;;;;12.98;59.22;99185.41;6951896;28;20234;-81
2024/02/15 03:54:43;;;;;;;4.97;2.50;;;;;;;12.76;58.96;99194.75;6951595;28;20230;-81
2024/02/15 03:58:04;;;;;;;4.53;2.13;;;;;;;12.93;59.21;99199.53;6948705;28;20235;-81
2024/02/15 04:01:27;;;;;;;4.47;2.40;;;;;;;12.86;59.02;99192.47;6948555;28;20657;-81
2024/02/15 04:04:49;;;;;;;4.00;2.30;;;;;;;12.91;58.70;99192.66;6948368;28;20203;-81
2024/02/15 04:08:12;;;;;;;3.03;2.33;;;;;;;13.00;58.01;99203.09;6947959;28;20245;-81
2024/02/15 04:11:33;;;;;;;4.57;2.43;;;;;;;12.74;59.02;99213.09;6957129;28;20261;-81
2024/02/15 04:14:59;;;;;;;5.67;2.83;;;;;;;12.76;59.09;99198.28;6957577;28;20318;-81
2024/02/15 04:18:20;;;;;;;3.03;2.40;;;;;;;12.22;60.13;99199.53;6956356;28;20231;-81
2024/02/15 04:21:44;;;;;;;3.63;2.60;;;;;;;12.28;60.70;99201.41;6949906;28;20243;-81
2024/02/15 04:25:09;;;;;;;4.87;3.30;;;;;;;12.74;59.57;99207.69;6948729;28;20203;-81
2024/02/15 04:28:33;;;;;;;4.40;2.90;;;;;;;12.84;59.36;99205.34;6948566;28;20306;-81
2024/02/15 04:31:54;;;;;;;2.80;2.60;;;;;;;12.74;59.56;99213.09;6964771;28;20207;-82
2024/02/15 04:35:16;;;;;;;3.23;2.23;;;;;;;12.74;59.79;99196.84;6978279;28;20251;-81
2024/02/15 04:38:40;;;;;;;4.20;2.60;;;;;;;12.61;60.12;99194.13;6977430;28;20363;-82
2024/02/15 04:42:03;;;;;;;3.07;2.67;;;;;;;12.86;59.71;99187.06;6974665;28;20233;-81
2024/02/15 04:45:24;;;;;;;2.73;2.53;;;;;;;13.08;59.49;99185.78;6971964;28;20324;-81
2024/02/15 04:48:46;;;;;;;3.90;2.37;;;;;;;12.96;60.44;99198.31;6973386;28;20310;-81
2024/02/15 04:52:07;;;;;;;3.77;2.40;;;;;;;12.81;60.84;99160.59;6980427;28;20769;-81
2024/02/15 04:55:31;;;;;;;2.63;2.43;;;;;;;13.35;60.30;99166.56;6979600;28;20245;-81
2024/02/15 04:58:53;;;;;;;3.13;2.43;;;;;;;13.83;59.60;99188.63;6977049;28;20324;-81
2024/02/15 05:02:15;;;;;;;7.73;2.90;;;;;;;14.02;59.27;99196.66;6973884;28;20301;-81
2024/02/15 05:05:38;;;;;;;6.10;2.80;;;;;;;14.13;58.53;99174.28;6973682;28;20348;-81
2024/02/15 05:09:00;;;;;;;2.73;2.33;;;;;;;14.39;58.00;99178.72;6964742;28;20724;-81
2024/02/15 05:12:26;;;;;;;6.13;2.97;;;;;;;14.27;57.92;99173.16;6946827;28;20207;-81
2024/02/15 05:15:49;;;;;;;3.47;2.73;;;;;;;14.53;57.41;99164.00;6966867;28;20719;-81
2024/02/15 05:19:12;;;;;;;4.60;2.97;;;;;;;14.52;57.54;99167.75;6980436;28;20275;-81
2024/02/15 05:22:33;;;;;;;3.73;2.70;;;;;;;14.64;57.15;99169.50;6980898;28;20688;-81
2024/02/15 05:25:56;;;;;;;3.43;2.53;;;;;;;14.70;56.46;99163.19;6981233;28;20198;-81
2024/02/15 05:29:17;;;;;;;3.57;2.73;;;;;;;14.87;56.05;99174.34;6978273;28;20775;-81
2024/02/15 05:32:43;;;;;;;3.30;2.57;;;;;;;14.72;56.25;99173.84;6981284;28;20239;-81
2024/02/15 05:36:05;;;;;;;6.33;2.67;;;;;;;14.55;57.05;99161.88;6980736;28;20227;-81
2024/02/15 05:39:26;;;;;;;4.97;2.67;;;;;;;14.83;56.52;99178.53;6980050;28;20235;-81
2024/02/15 05:42:49;;;;;;;5.00;2.60;;;;;;;14.26;58.07;99171.50;6980820;28;20227;-81
2024/02/15 05:46:13;;;;;;;3.17;2.70;;;;;;;14.45;57.87;99161.56;6980918;28;20584;-81
2024/02/15 05:49:37;;;;;;;4.27;3.27;;;;;;;14.76;57.03;99162.31;6979629;28;20203;-81
2024/02/15 05:52:59;;;;;;;2.90;2.60;;;;;;;14.86;56.44;99159.94;6978965;28;20240;-81
2024/02/15 05:56:20;;;;;;;2.53;2.33;;;;;;;14.87;56.42;99166.19;6979902;28;20233;-81
2024/02/15 05:59:41;;;;;;;5.30;3.00;;;;;;;14.66;57.01;99169.31;6979832;28;20235;-81
2024/02/15 06:03:04;;;;;;;4.13;2.97;;;;;;;13.93;59.20;99178.16;6977206;28;20281;-81
2024/02/15 06:06:26;;;;;;;4.20;2.70;;;;;;;14.53;57.75;99166.72;6952146;28;20223;-81
2024/02/15 06:09:48;;;;;;;5.93;3.67;;;;;;;14.66;57.25;99164.72;6952252;28;20263;-81
2024/02/15 06:13:09;;;;;;;7.33;3.30;;;;;;;14.69;57.62;99177.03;6954092;28;20664;-81
2024/02/15 06:16:31;;;;;;;3.33;2.70;;;;;;;14.88;56.68;99182.28;6956299;28;20632;-80
2024/02/15 06:19:52;;;;;;;3.60;3.27;;;;;;;14.82;56.73;99194.00;6959226;28;20252;-82
2024/02/15 06:23:15;;;;;;;5.27;4.30;;;;;;;14.64;57.61;99169.50;6976827;28;20610;-80
2024/02/15 06:26:37;;;;;;;5.37;3.67;;;;;;;14.81;56.79;99176.03;6974186;28;20777;-82
2024/02/15 06:41:19;;;;;;;4.00;3.60;;;;;;;14.46;58.12;99187.63;6953165;28;20203;-83
2024/02/15 06:44:41;;;;;;;5.13;3.47;;;;;;;14.53;57.84;99189.25;6963160;28;20688;-80
2024/02/15 06:48:02;;;;;;;7.10;3.83;;;;;;;14.79;56.93;99175.44;6962807;28;20339;-79
2024/02/15 06:51:24;;;;;;;5.50;3.40;;;;;;;14.95;56.21;99182.19;6967871;28;20199;-81
2024/02/15 06:54:46;;;;;;;6.23;3.40;;;;;;;15.23;55.35;99172.47;6968500;28;20223;-80
2024/02/15 06:58:09;;;;;;;4.67;3.30;;;;;;;15.14;55.55;99173.00;6981213;28;20264;-80
2024/02/15 07:01:30;;;;;;;4.23;3.20;;;;;;;15.26;55.06;99165.75;6972803;28;20574;-80
2024/02/15 07:04:51;;;;;;;3.80;2.80;;;;;;;15.21;54.73;99169.16;6966361;28;20226;-79
2024/02/15 07:08:13;;;;;;;4.37;3.63;;;;;;;15.28;54.85;99160.97;6971042;28;20264;-79
2024/02/15 07:11:35;;;;;;;4.27;2.80;;;;;;;15.30;54.79;99170.53;6965755;28;20208;-79
2024/02/15 07:14:58;;;;;;;5.90;2.90;;;;;;;15.36;54.38;99166.09;6962096;28;20230;-80
2024/02/15 07:18:20;;;;;;;3.87;2.90;;;;;;;15.51;53.93;99169.28;6953898;28;20330;-79
2024/02/15 07:21:44;;;;;;;5.10;2.80;;;;;;;15.57;53.68;99165.66;6942252;28;20224;-79
2024/02/15 07:25:06;;;;;;;3.07;2.17;;;;;;;15.57;53.34;99171.09;6945971;28;20216;-79
2024/02/15 07:28:27;;;;;;;3.30;2.50;;;;;;;16.04;52.21;99162.09;6973728;28;20310;-80
2024/02/15 07:31:50;;;;;;;4.00;2.40;;;;;;;16.11;51.14;99168.25;6970149;28;20307;-79
2024/02/15 07:35:12;;;;;;;2.30;2.10;;;;;;;16.09;51.17;99151.31;6960898;28;20357;-78
2024/02/15 07:38:34;;;;;;;5.23;2.20;;;;;;;16.14;50.56;99129.69;6950202;28;20224;-78
2024/02/15 07:41:58;;;;;;;2.50;2.17;;;;;;;16.57;49.74;99158.34;6943554;28;20262;-80
2024/02/15 07:45:19;;;;;;;3.73;2.37;;;;;;;16.56;49.59;99153.97;6950049;28;20208;-78
2024/02/15 07:48:45;;;;;;;3.03;2.00;;;;;;;16.54;50.09;99156.09;6959257;28;20224;-80
2024/02/15 07:52:06;;;;;;;6.00;2.40;;;;;;;16.05;49.70;99060.38;6961403;28;20204;-80
2024/02/15 07:55:28;;;;;;;3.57;2.07;;;;;;;17.67;47.59;99139.06;6950215;28;20565;-82
2024/02/15 07:58:51;;;;;;;2.77;2.00;;;;;;;18.17;45.40;99150.94;6959802;28;20249;-80
2024/02/15 08:02:17;;;;;;;3.33;2.20;;;;;;;16.78;48.66;99140.59;6971601;28;20226;-80
2024/02/15 08:05:40;;;;;;;3.17;2.20;;;;;;;17.62;46.70;99130.78;6961045;28;20201;-80
2024/02/15 08:09:04;;;;;;;5.20;2.60;;;;;;;18.36;44.96;99130.59;6966124;28;20372;-80
2024/02/15 08:12:26;;;;;;;2.03;1.87;;;;;;;18.00;45.60;99121.97;6964326;28;20645;-81
2024/02/15 08:15:51;;;;;;;2.20;2.00;;;;;;;17.71;46.00;99118.44;6963180;28;20322;-79
2024/02/15 08:19:16;;;;;;;2.50;2.10;;;;;;;17.67;46.21;99106.34;6967380;28;20229;-80
2024/02/15 08:22:43;;;;;;;2.20;1.90;;;;;;;19.63;42.80;99102.16;6969035;28;20208;-82
2024/02/15 08:26:05;;;;;;;3.23;2.00;;;;;;;20.33;40.66;99089.22;6969905;28;20206;-78
2024/02/15 08:29:26;;;;;;;2.70;2.30;;;;;;;20.90;39.00;99087.47;6971442;28;20210;-80
2024/02/15 08:32:48;;;;;;;4.73;2.30;;;;;;;21.36;38.83;99092.97;6972192;28;20206;-80
2024/02/15 08:36:11;;;;;;;3.57;1.87;;;;;;;21.28;39.11;99079.75;6969822;28;20230;-80
2024/02/15 08:39:33;;;;;;;2.97;2.13;;;;;;;21.34;38.08;99065.81;6965149;28;20213;-81
2024/02/15 08:42:55;;;;;;;2.00;1.70;;;;;;;21.49;38.42;99071.34;6969452;28;20213;-78
2024/02/15 08:46:16;;;;;;;5.87;2.30;;;;;;;20.17;40.66;99069.06;6968433;28;20615;-79
2024/02/15 08:49:40;;;;;;;4.80;2.57;;;;;;;20.20;40.84;99070.47;6967211;28;20206;-79
2024/02/15 08:53:06;;;;;;;2.60;2.17;;;;;;;20.89;39.48;99045.56;6964879;28;20207;-79
2024/02/15 08:56:28;;;;;;;3.07;1.80;;;;;;;21.77;37.37;99053.63;6968431;28;20356;-80
2024/02/15 08:59:51;;;;;;;4.33;2.37;;;;;;;22.04;37.48;99055.06;6967614;28;20249;-79
2024/02/15 09:03:13;;;;;;;2.03;1.73;;;;;;;22.14;36.99;99060.53;6967866;28;20791;-80
2024/02/15 09:06:34;;;;;;;2.73;1.77;;;;;;;21.84;37.00;99041.28;6968628;28;20299;-78
2024/02/15 09:09:56;;;;;;;2.20;2.00;;;;;;;21.98;36.70;99047.91;6971533;28;20259;-79
2024/02/15 09:13:19;;;;;;;3.47;2.00;;;;;;;21.54;37.81;99043.13;6965717;28;20759;-80
2024/02/15 09:16:40;;;;;;;2.90;2.00;;;;;;;21.22;39.23;99042.41;6959967;28;20713;-80
2024/02/15 09:20:02;;;;;;;4.20;2.10;;;;;;;21.56;37.98;99043.66;6966615;28;20349;-79
2024/02/15 09:23:24;;;;;;;2.03;1.83;;;;;;;21.65;38.14;99026.38;6963057;28;20207;-80
2024/02/15 09:26:45;;;;;;;3.30;2.57;;;;;;;21.65;38.16;99036.56;6958707;28;20215;-79
2024/02/15 09:30:10;;;;;;;1.90;1.67;;;;;;;21.00;38.81;99049.19;6960627;28;20281;-79
2024/02/15 09:33:31;;;;;;;3.17;1.90;;;;;;;20.24;40.44;99023.16;6939809;28;20242;-79
2024/02/15 09:36:53;;;;;;;2.27;1.80;;;;;;;20.40;40.22;99049.56;6942390;28;20262;-79
2024/02/15 09:40:15;;;;;;;1.73;1.63;;;;;;;20.65;40.14;99046.19;6946069;28;20293;-79
2024/02/15 09:43:37;;;;;;;2.47;2.00;;;;;;;20.51;40.36;99037.59;6967808;28;20657;-80
2024/02/15 09:47:04;;;;;;;2.43;1.90;;;;;;;20.69;39.74;99050.06;6966888;28;20254;-79
2024/02/15 09:50:26;;;;;;;1.83;1.60;;;;;;;20.45;39.82;99032.34;6966135;28;20194;-79
2024/02/15 09:53:48;;;;;;;4.33;2.10;;;;;;;21.04;39.28;99026.44;6967076;28;20217;-79
2024/02/15 09:57:10;;;;;;;2.13;1.73;;;;;;;20.18;40.69;99031.56;6966648;28;20402;-79
2024/02/15 10:00:34;;;;;;;2.87;1.90;;;;;;;20.45;39.89;99030.41;6962542;28;20222;-79
2024/02/15 10:03:59;;;;;;;2.97;1.77;;;;;;;20.88;39.91;99038.41;6942803;28;20203;-79
2024/02/15 10:11:09;;;;;;;3.07;2.17;;;;;;;21.76;38.86;99025.34;6939668;28;20211;-79
2024/02/15 10:14:31;;;;;;;2.23;2.00;;;;;;;21.47;38.74;99024.16;6945254;28;20582;-79
2024/02/15 10:17:55;;;;;;;3.27;2.13;;;;;;;21.30;39.79;99004.34;6954292;28;20323;-79
2024/02/15 10:21:29;;;;;;;3.57;1.97;;;;;;;20.71;38.64;99017.72;6962090;28;20255;-79
2024/02/15 10:24:50;;;;;;;5.27;2.73;;;;;;;22.07;37.08;99007.81;6968224;28;20206;-78
2024/02/15 10:28:15;;;;;;;3.70;2.47;;;;;;;22.39;37.00;99005.63;6973354;28;20318;-77
2024/02/15 10:31:36;;;;;;;2.20;2.00;;;;;;;20.49;39.43;98995.09;6976719;28;20292;-82
2024/02/15 10:34:58;;;;;;;5.13;2.57;;;;;;;20.54;39.62;98995.97;6960469;28;20211;-81
2024/02/15 10:38:27;;;;;;;7.27;3.37;;;;;;;20.85;39.72;98989.56;6978531;28;20302;-80
2024/02/15 10:41:49;;;;;;;5.87;2.80;;;;;;;21.87;38.26;98974.03;6978443;28;20186;-80
2024/02/15 10:45:11;;;;;;;2.10;1.60;;;;;;;22.10;35.28;98973.47;6971339;28;20289;-79
2024/02/15 10:48:33;;;;;;;2.10;1.80;;;;;;;21.76;37.72;98964.97;6970086;28;20313;-79
2024/02/15 10:51:57;;;;;;;2.63;1.30;;;;;;;22.30;35.11;98968.00;6971861;28;20575;-79
2024/02/15 10:55:25;;;;;;;3.73;2.10;;;;;;;22.49;34.66;98975.38;6968136;28;20211;-80
2024/02/15 10:58:48;;;;;;;2.73;1.73;;;;;;;21.43;37.44;98962.66;6971016;28;20731;-80
2024/02/15 11:02:25;;;;;;;5.07;1.80;;;;;;;21.71;36.70;98953.97;6974463;28;20212;-82
2024/02/15 11:05:46;;;;;;;8.83;4.63;;;;;;;22.10;35.66;98955.09;6974409;28;20666;-81
2024/02/15 11:09:08;;;;;;;2.17;1.83;;;;;;;22.77;34.41;98936.28;6962741;28;20228;-82
2024/02/15 11:12:31;;;;;;;6.80;2.17;;;;;;;22.78;34.36;98940.69;6963028;28;20354;-80
2024/02/15 11:15:53;;;;;;;18.93;13.13;;;;;;;22.76;34.88;98950.31;6970911;28;20369;-80
2024/02/15 11:19:41;;;;;;;1.50;1.40;;;;;;;23.03;33.35;98931.53;6971993;28;20689;-80
2024/02/15 11:23:04;;;;;;;1.90;1.50;;;;;;;22.97;33.42;98936.22;6961265;28;20212;-80
2024/02/15 11:26:46;;;;;;;2.07;1.67;;;;;;;22.73;34.18;98918.69;6947747;28;20228;-80
2024/02/15 11:30:12;;;;;;;1.47;1.33;;;;;;;22.85;33.08;98921.97;6945728;28;20807;-79
2024/02/15 11:33:37;;;;;;;2.73;1.60;;;;;;;21.51;34.99;98910.03;6959528;28;20192;-80
2024/02/15 11:36:58;;;;;;;3.03;1.50;;;;;;;21.39;36.13;98914.09;6967326;28;20258;-84
2024/02/15 11:40:22;;;;;;;2.00;1.40;;;;;;;22.59;34.71;98916.84;6975642;28;20255;-81
2024/02/15 11:43:58;;;;;;;2.07;1.50;;;;;;;22.72;34.56;98897.00;6978747;28;20209;-81
2024/02/15 11:47:20;;;;;;;2.07;1.57;;;;;;;22.91;34.04;98909.03;6969999;28;20394;-81
2024/02/15 11:50:42;;;;;;;3.63;1.73;;;;;;;23.88;32.73;98893.31;6969326;28;20299;-78
2024/02/15 11:54:11;;;;;;;4.40;1.93;;;;;;;23.11;33.99;98895.16;6968976;28;20578;-78
2024/02/15 11:57:38;;;;;;;3.77;1.40;;;;;;;22.79;33.74;98887.38;6967475;28;20235;-79
2024/02/15 12:19:17;;;;;;;2.20;1.40;;;;;;;23.31;32.66;98838.09;6970033;28;20225;-83
2024/02/15 12:22:44;;;;;;;2.17;1.30;;;;;;;23.71;33.14;98875.53;6972825;28;20208;-81
2024/02/15 12:26:06;;;;;;;2.63;1.50;;;;;;;23.44;32.06;98873.25;6974786;28;20209;-81
2024/02/15 12:29:28;;;;;;;3.07;1.53;;;;;;;23.43;33.17;98868.03;6967820;28;20825;-79
2024/02/15 12:32:50;;;;;;;2.23;1.70;;;;;;;24.07;31.73;98863.13;6974156;28;20259;-81
2024/02/15 12:36:12;;;;;;;2.57;1.43;;;;;;;23.37;31.95;98800.38;6967327;28;20232;-80
2024/02/15 12:39:36;;;;;;;2.60;1.67;;;;;;;23.46;32.76;98835.25;6953566;28;20874;-80
2024/02/15 12:42:59;;;;;;;2.63;1.30;;;;;;;22.94;32.82;98831.44;6945106;28;20201;-82
2024/02/15 12:46:21;;;;;;;2.97;1.90;;;;;;;23.12;33.27;98826.13;6949406;28;20203;-80
2024/02/15 12:49:43;;;;;;;3.57;1.90;;;;;;;22.89;33.51;98817.75;6970948;28;20588;-82
2024/02/15 12:53:05;;;;;;;2.37;1.80;;;;;;;23.32;33.62;98820.53;6965884;28;20649;-82
2024/02/15 12:56:28;;;;;;;1.43;1.33;;;;;;;23.03;34.24;98811.34;6955246;28;20276;-82
2024/02/15 12:59:50;;;;;;;3.07;1.60;;;;;;;23.48;32.66;98811.00;6954474;28;20834;-82
2024/02/15 13:03:14;;;;;;;2.20;1.60;;;;;;;23.63;32.32;98783.38;6958229;28;20209;-82
2024/02/15 13:06:37;;;;;;;3.20;1.80;;;;;;;22.24;34.22;98805.09;6966139;28;20600;-82
2024/02/15 13:09:58;;;;;;;1.93;1.20;;;;;;;22.63;33.55;98792.31;6958163;28;20293;-82
2024/02/15 13:13:22;;;;;;;3.07;1.50;;;;;;;22.68;33.96;98784.06;6971206;28;20209;-81
2024/02/15 13:16:46;;;;;;;1.53;1.40;;;;;;;22.97;33.29;98779.47;6969690;28;20307;-80
2024/02/15 13:20:12;;;;;;;1.50;1.40;;;;;;;23.36;32.86;98768.47;6954519;28;20579;-80
2024/02/15 13:23:35;;;;;;;1.50;1.37;;;;;;;23.49;32.21;98771.38;6946596;28;20276;-81
2024/02/15 13:26:57;;;;;;;1.63;1.53;;;;;;;23.13;33.40;98758.97;6945006;28;20304;-82
2024/02/15 13:30:23;;;;;;;1.87;1.50;;;;;;;23.24;32.91;98755.06;6954949;28;20261;-80
2024/02/15 13:33:47;;;;;;;2.20;1.60;;;;;;;23.49;32.58;98751.28;6972853;28;20643;-81
2024/02/15 13:37:08;;;;;;;3.93;1.47;;;;;;;23.07;32.94;98757.38;6956184;28;20239;-80
2024/02/15 13:40:30;;;;;;;1.97;1.77;;;;;;;22.76;33.02;98720.22;6953724;28;20291;-82
2024/02/15 13:43:51;;;;;;;2.67;1.30;;;;;;;23.08;33.30;98749.97;6950377;28;20581;-82
2024/02/15 13:47:16;;;;;;;3.57;1.90;;;;;;;23.40;32.73;98755.75;6953462;28;20270;-79
2024/02/15 13:50:38;;;;;;;4.37;1.50;;;;;;;23.39;32.18;98738.44;6973001;28;20220;-78
2024/02/15 13:53:59;;;;;;;3.53;1.63;;;;;;;23.15;32.74;98747.69;6971910;28;20254;-80
2024/02/15 13:57:21;;;;;;;2.07;1.57;;;;;;;23.52;32.57;98737.78;6971310;28;20301;-79
2024/02/15 14:00:43;;;;;;;1.53;1.30;;;;;;;23.54;32.57;98743.78;6973472;28;20683;-79
2024/02/15 14:04:06;;;;;;;3.23;1.83;;;;;;;22.86;32.67;98738.56;6950684;28;20263;-79
2024/02/15 14:07:27;;;;;;;2.57;1.70;;;;;;;23.02;32.54;98729.09;6981461;28;20218;-79
2024/02/15 14:10:49;;;;;;;4.00;1.33;;;;;;;22.80;33.26;98731.47;6987219;28;20213;-81
2024/02/15 14:14:10;;;;;;;1.40;1.30;;;;;;;23.00;33.05;98726.63;6984876;28;20206;-80
2024/02/15 14:17:32;;;;;;;2.53;1.57;;;;;;;23.27;33.22;98731.69;6983460;28;20228;-80
2024/02/15 14:20:54;;;;;;;3.00;1.40;;;;;;;23.40;32.68;98728.25;7002497;28;20251;-78
2024/02/15 14:24:18;;;;;;;1.47;1.30;;;;;;;23.52;32.52;98720.41;6987267;28;20215;-79
2024/02/15 14:27:40;;;;;;;3.63;1.70;;;;;;;23.61;32.01;98715.94;6957645;28;20225;-78
2024/02/15 14:34:41;;;;;;;3.93;1.60;;;;;;;23.59;32.63;98707.16;6970732;28;20227;-79
2024/02/15 14:38:06;;;;;;;2.07;1.50;;;;;;;23.26;33.12;98703.31;6970494;28;20330;-79
2024/02/15 14:41:28;;;;;;;2.30;1.80;;;;;;;22.45;34.48;98696.78;6969122;28;20207;-79
2024/02/15 14:44:50;;;;;;;3.30;1.70;;;;;;;21.99;35.57;98698.09;6970522;28;20213;-79
2024/02/15 14:48:12;;;;;;;4.30;1.67;;;;;;;22.48;35.25;98700.91;6967981;28;20640;-81
2024/02/15 14:51:35;;;;;;;2.57;1.37;;;;;;;21.90;36.65;98687.97;6971154;28;20650;-79
2024/02/15 14:54:58;;;;;;;1.70;1.40;;;;;;;22.78;34.47;98698.75;6970314;28;20699;-82
2024/02/15 14:58:21;;;;;;;2.63;1.23;;;;;;;22.98;34.49;98693.13;6968608;28;20733;-79
2024/02/15 15:01:44;;;;;;;4.80;1.40;;;;;;;22.88;34.54;98693.19;6970232;28;20641;-79
2024/02/15 15:12:40;;;;;;;3.23;1.30;;;;;;;22.13;36.03;98687.31;6969588;28;20189;-78
2024/02/15 15:16:02;;;;;;;2.40;1.63;;;;;;;21.38;38.14;98676.56;6966277;28;20662;-78
2024/02/15 15:19:25;;;;;;;4.23;2.00;;;;;;;21.29;38.52;98678.22;6965215;28;20228;-78
2024/02/15 15:22:46;;;;;;;3.23;1.70;;;;;;;21.19;38.32;98683.72;6971319;28;20214;-79
2024/02/15 15:26:10;;;;;;;2.57;1.80;;;;;;;21.14;38.68;98684.53;6968406;28;20231;-79
2024/02/15 15:29:33;;;;;;;3.97;1.83;;;;;;;21.40;38.75;98677.94;6968931;28;20670;-79
2024/02/15 15:32:55;;;;;;;2.30;1.80;;;;;;;21.94;37.46;98686.28;6969694;28;20212;-79
2024/02/15 15:36:18;;;;;;;4.17;1.67;;;;;;;22.41;37.13;98678.34;6975544;28;20210;-80
2024/02/15 15:39:40;;;;;;;1.97;1.70;;;;;;;22.20;37.22;98693.31;6981453;28;20243;-81
2024/02/15 15:43:02;;;;;;;2.07;1.80;;;;;;;22.20;37.16;98696.88;6977332;28;20215;-80
2024/02/15 15:46:25;;;;;;;5.07;2.03;;;;;;;21.47;38.63;98692.19;6975365;28;20221;-81
2024/02/15 15:49:46;;;;;;;3.10;2.07;;;;;;;21.86;38.00;98689.63;6980468;28;20252;-81
2024/02/15 15:53:10;;;;;;;2.83;1.80;;;;;;;21.39;38.79;98700.97;6979136;28;20297;-81
2024/02/15 15:56:33;;;;;;;5.00;2.37;;;;;;;21.51;38.54;98682.31;6976797;28;20584;-80
2024/02/15 15:59:55;;;;;;;5.47;2.53;;;;;;;21.37;38.96;98683.16;6984859;28;20222;-80
2024/02/15 16:03:18;;;;;;;7.07;2.23;;;;;;;20.79;39.64;98656.31;6986162;28;20673;-80
2024/02/15 16:06:40;;;;;;;3.30;1.70;;;;;;;20.83;40.07;98660.94;6970534;28;20251;-81
2024/02/15 16:10:02;;;;;;;5.93;2.07;;;;;;;20.69;40.25;98671.94;6957389;28;20523;-80
2024/02/15 16:13:25;;;;;;;3.27;2.33;;;;;;;20.15;41.57;98665.22;6955455;28;20215;-81
2024/02/15 16:16:47;;;;;;;3.77;2.20;;;;;;;20.39;40.71;98671.88;6952266;28;20724;-80
2024/02/15 16:20:13;;;;;;;2.90;2.03;;;;;;;20.41;40.99;98665.00;6965498;28;20277;-80
2024/02/15 16:23:36;;;;;;;2.53;2.00;;;;;;;20.26;41.25;98650.47;6963645;28;20214;-80
2024/02/15 16:26:57;;;;;;;3.27;1.90;;;;;;;19.74;41.89;98653.31;6974852;28;20589;-80
2024/02/15 16:30:19;;;;;;;2.47;2.00;;;;;;;20.20;41.28;98652.41;6980530;28;20244;-80
2024/02/15 16:33:41;;;;;;;2.57;2.10;;;;;;;19.97;41.85;98660.22;6959890;28;20344;-80
2024/02/15 16:37:04;;;;;;;6.20;2.33;;;;;;;20.76;40.15;98651.34;6969475;28;20234;-80
2024/02/15 16:40:27;;;;;;;4.67;2.20;;;;;;;20.87;40.36;98643.97;6973007;28;20269;-80